Time;durP1;ratioP1;P1;durP2;ratioP2;P2;SDS_P1;SDS_P2;PMS_P1;PMS_P2;Temp;Humidity;BMP_temperature;BMP_pressure;BME280_temperature;BME280_humidity;BME280_pressure;Samples;Min_cycle;Max_cycle;Signal;HPM_P1;HPM_P2
2023/01/24 00:00:03;;;;;;;12.63;9.07;;;5.90;99.90;;;;;;7390005;19;20146;-75
2023/01/24 00:02:29;;;;;;;17.10;10.53;;;5.90;99.90;;;;;;7388585;19;20172;-76
2023/01/24 00:04:54;;;;;;;16.17;9.83;;;5.90;99.90;;;;;;7391167;19;20142;-75
2023/01/24 00:07:22;;;;;;;16.07;9.80;;;5.90;99.90;;;;;;7392635;19;20147;-76
2023/01/24 00:09:47;;;;;;;16.10;10.37;;;5.90;99.90;;;;;;7390175;19;20174;-74
2023/01/24 00:12:13;;;;;;;17.27;10.20;;;5.90;99.90;;;;;;7394579;19;20155;-76
2023/01/24 00:14:39;;;;;;;12.50;9.00;;;5.90;99.90;;;;;;7390119;19;20134;-76
2023/01/24 00:17:04;;;;;;;16.83;10.67;;;5.90;99.90;;;;;;7392459;19;20186;-76
2023/01/24 00:19:30;;;;;;;16.73;9.87;;;5.90;99.90;;;;;;7390148;19;20141;-76
2023/01/24 00:21:56;;;;;;;15.27;10.33;;;5.90;99.90;;;;;;7390591;19;20141;-76
2023/01/24 00:24:22;;;;;;;13.93;9.37;;;5.90;99.90;;;;;;7391056;19;20197;-74
2023/01/24 00:26:49;;;;;;;12.70;8.57;;;5.80;99.90;;;;;;7391894;19;20155;-76
2023/01/24 00:29:14;;;;;;;14.43;9.23;;;5.70;99.90;;;;;;7391041;19;20516;-76
2023/01/24 00:31:40;;;;;;;14.03;10.00;;;5.90;99.90;;;;;;7393933;19;20135;-75
2023/01/24 00:34:06;;;;;;;14.50;9.90;;;5.80;99.90;;;;;;7388508;19;20160;-75
2023/01/24 00:36:31;;;;;;;14.87;9.53;;;5.90;99.90;;;;;;7388788;19;20599;-75
2023/01/24 00:38:57;;;;;;;15.10;9.40;;;5.80;99.90;;;;;;7390623;19;20607;-76
2023/01/24 00:41:23;;;;;;;13.37;8.53;;;5.70;99.90;;;;;;7390602;19;20142;-75
2023/01/24 00:43:48;;;;;;;12.67;8.97;;;5.80;99.90;;;;;;7389706;19;20508;-74
2023/01/24 00:46:14;;;;;;;13.83;8.87;;;5.80;99.90;;;;;;7392423;19;20594;-75
2023/01/24 00:48:40;;;;;;;14.73;9.27;;;5.80;99.90;;;;;;7392118;19;20190;-75
2023/01/24 00:51:06;;;;;;;13.00;8.83;;;5.80;99.90;;;;;;7390962;19;20130;-75
2023/01/24 00:53:31;;;;;;;12.50;8.20;;;5.90;99.90;;;;;;7390209;19;20152;-74
2023/01/24 00:55:57;;;;;;;14.80;9.13;;;5.90;99.90;;;;;;7391496;19;20135;-74
2023/01/24 00:58:23;;;;;;;9.30;7.53;;;5.80;99.90;;;;;;7392067;19;20244;-76
2023/01/24 01:00:49;;;;;;;12.57;8.07;;;5.70;99.90;;;;;;7388322;19;20177;-76
2023/01/24 01:03:18;;;;;;;11.77;8.37;;;5.60;99.90;;;;;;7388725;19;20131;-76
2023/01/24 01:05:43;;;;;;;12.77;8.57;;;5.80;99.90;;;;;;7392710;19;20141;-76
2023/01/24 01:08:10;;;;;;;13.87;8.10;;;5.90;99.90;;;;;;7388457;19;20154;-75
2023/01/24 01:10:36;;;;;;;10.33;7.93;;;5.80;99.90;;;;;;7389005;19;20488;-75
2023/01/24 01:13:03;;;;;;;14.20;9.23;;;5.80;99.90;;;;;;7390581;19;20543;-75
2023/01/24 01:15:29;;;;;;;12.10;8.40;;;5.90;99.90;;;;;;7383970;19;20139;-74
2023/01/24 01:17:57;;;;;;;12.80;8.63;;;5.90;99.90;;;;;;7389173;19;20135;-76
2023/01/24 01:20:23;;;;;;;13.40;7.83;;;5.90;99.90;;;;;;7391819;19;20176;-76
2023/01/24 01:22:49;;;;;;;12.20;7.47;;;5.90;99.90;;;;;;7390673;19;20135;-74
2023/01/24 01:25:15;;;;;;;12.87;8.97;;;5.90;99.90;;;;;;7388892;19;20206;-76
2023/01/24 01:27:40;;;;;;;13.83;8.43;;;5.90;99.90;;;;;;7388904;19;20159;-76
2023/01/24 01:30:07;;;;;;;12.87;8.23;;;5.90;99.90;;;;;;7386458;19;20135;-75
2023/01/24 01:32:33;;;;;;;11.63;8.30;;;5.80;99.90;;;;;;7386846;19;20158;-76
2023/01/24 01:34:59;;;;;;;11.87;8.10;;;5.80;99.90;;;;;;7387852;19;20162;-76
2023/01/24 01:37:25;;;;;;;11.80;8.40;;;5.80;99.90;;;;;;7386469;19;20635;-76
2023/01/24 01:39:51;;;;;;;12.57;7.87;;;5.90;99.90;;;;;;7389243;19;20479;-74
2023/01/24 01:42:16;;;;;;;10.87;7.47;;;5.90;99.90;;;;;;7386485;19;20146;-76
2023/01/24 01:44:49;;;;;;;11.87;7.60;;;5.90;99.90;;;;;;7390090;19;20161;-77
2023/01/24 01:47:36;;;;;;;11.97;8.63;;;5.90;99.90;;;;;;7392529;19;20134;-76
2023/01/24 01:50:17;;;;;;;12.90;8.20;;;5.90;99.90;;;;;;7396768;19;20143;-76
2023/01/24 01:52:43;;;;;;;14.13;8.90;;;5.90;99.90;;;;;;7391928;19;20563;-75
2023/01/24 01:55:22;;;;;;;13.33;8.37;;;5.90;99.90;;;;;;7395219;19;20142;-73
2023/01/24 01:57:51;;;;;;;11.87;7.83;;;5.90;99.90;;;;;;7391360;19;20572;-76
2023/01/24 02:00:21;;;;;;;14.60;8.97;;;5.90;99.90;;;;;;7394436;19;20174;-76
2023/01/24 02:02:50;;;;;;;15.43;9.23;;;5.90;99.90;;;;;;7396270;19;20137;-75
2023/01/24 02:05:20;;;;;;;13.83;8.80;;;5.90;99.90;;;;;;7394615;19;20126;-74
2023/01/24 02:07:55;;;;;;;11.83;8.20;;;5.90;99.90;;;;;;7394481;19;20151;-77
2023/01/24 02:10:23;;;;;;;12.17;8.10;;;5.90;99.90;;;;;;7394456;19;20134;-73
2023/01/24 02:12:53;;;;;;;11.30;7.80;;;5.90;99.90;;;;;;7394476;19;20809;-75
2023/01/24 02:18:10;;;;;;;11.27;7.70;;;6.00;99.90;;;;;;7393060;19;20146;-75
2023/01/24 02:20:41;;;;;;;13.73;8.57;;;5.90;99.90;;;;;;7396417;19;20210;-76
2023/01/24 02:23:25;;;;;;;13.60;8.20;;;5.90;99.90;;;;;;7393181;19;20134;-74
2023/01/24 02:26:05;;;;;;;13.37;8.30;;;5.90;99.90;;;;;;7393750;19;20591;-76
2023/01/24 02:28:31;;;;;;;11.83;7.40;;;6.00;99.90;;;;;;7395633;19;20133;-74
2023/01/24 02:30:58;;;;;;;13.07;8.43;;;6.00;99.90;;;;;;7393938;19;20464;-76
2023/01/24 02:33:24;;;;;;;13.43;8.30;;;6.00;99.90;;;;;;7396133;19;20126;-74
2023/01/24 02:35:50;;;;;;;13.87;8.37;;;6.00;99.90;;;;;;7391443;19;20134;-76
2023/01/24 02:38:26;;;;;;;11.27;7.90;;;6.00;99.90;;;;;;7393096;19;20828;-75
2023/01/24 02:40:56;;;;;;;12.63;8.23;;;6.00;99.90;;;;;;7394184;19;20134;-76
2023/01/24 02:43:26;;;;;;;12.27;8.40;;;6.00;99.90;;;;;;7392569;19;20282;-75
2023/01/24 02:45:52;;;;;;;12.23;7.87;;;6.00;99.90;;;;;;7394080;19;20147;-75
2023/01/24 02:48:18;;;;;;;11.77;7.97;;;6.00;99.90;;;;;;7395297;19;20138;-76
2023/01/24 02:53:29;;;;;;;13.57;8.40;;;5.90;99.90;;;;;;7393943;19;20135;-76
2023/01/24 02:58:44;;;;;;;12.63;8.33;;;5.80;99.90;;;;;;7394577;19;20169;-75
2023/01/24 03:01:10;;;;;;;11.40;8.00;;;5.90;99.90;;;;;;7389975;19;20587;-74
2023/01/24 03:03:37;;;;;;;12.10;8.30;;;5.90;99.90;;;;;;7390790;19;20210;-75
2023/01/24 03:06:03;;;;;;;14.63;9.30;;;5.90;99.90;;;;;;7391353;19;21195;-73
2023/01/24 03:08:31;;;;;;;14.63;9.07;;;5.90;99.90;;;;;;7392706;19;20600;-75
2023/01/24 03:10:57;;;;;;;12.37;9.00;;;5.90;99.90;;;;;;7393272;19;20154;-76
2023/01/24 03:35:23;;;;;;;11.13;8.00;;;5.90;99.90;;;;;;7390800;19;20154;-75
2023/01/24 03:40:34;;;;;;;13.37;8.97;;;5.80;99.90;;;;;;7393384;19;20158;-75
2023/01/24 03:43:01;;;;;;;13.00;8.50;;;5.80;99.90;;;;;;7390435;19;20165;-75
2023/01/24 03:45:29;;;;;;;13.87;9.13;;;5.60;99.90;;;;;;7390135;19;20146;-74
2023/01/24 03:48:00;;;;;;;13.40;8.47;;;5.70;99.90;;;;;;7390678;19;20135;-74
2023/01/24 03:53:15;;;;;;;13.60;8.53;;;5.70;99.90;;;;;;7390771;19;20139;-76
2023/01/24 03:55:41;;;;;;;14.43;9.27;;;5.80;99.90;;;;;;7391124;19;20198;-76
2023/01/24 03:58:08;;;;;;;12.57;8.33;;;5.70;99.90;;;;;;7390301;19;20135;-76
2023/01/24 04:00:35;;;;;;;15.33;8.57;;;5.70;99.90;;;;;;7388122;19;20213;-75
2023/01/24 04:03:01;;;;;;;13.93;9.13;;;5.80;99.90;;;;;;7392434;19;20214;-75
2023/01/24 04:05:27;;;;;;;13.27;8.73;;;5.80;99.90;;;;;;7390619;19;20706;-75
2023/01/24 04:07:54;;;;;;;16.23;9.30;;;5.80;99.90;;;;;;7390978;19;20218;-74
2023/01/24 04:10:20;;;;;;;15.33;9.23;;;5.80;99.90;;;;;;7386821;19;20150;-75
2023/01/24 04:12:46;;;;;;;16.47;9.43;;;5.70;99.90;;;;;;7391396;19;20145;-76
2023/01/24 04:15:21;;;;;;;17.47;9.87;;;5.70;99.90;;;;;;7388153;19;20142;-75
2023/01/24 04:17:47;;;;;;;16.67;9.40;;;5.70;99.90;;;;;;7390278;19;20142;-75
2023/01/24 04:20:14;;;;;;;15.17;10.03;;;5.70;99.90;;;;;;7389625;19;20135;-74
2023/01/24 04:22:40;;;;;;;16.73;9.77;;;5.70;99.90;;;;;;7390835;19;20131;-75
2023/01/24 04:25:07;;;;;;;13.90;9.63;;;5.70;99.90;;;;;;7389446;19;20194;-76
2023/01/24 04:27:33;;;;;;;14.00;9.27;;;5.60;99.90;;;;;;7391093;19;20142;-75
2023/01/24 04:29:59;;;;;;;16.60;9.30;;;5.70;99.90;;;;;;7385973;19;20134;-75
2023/01/24 04:32:24;;;;;;;15.07;9.80;;;5.70;99.90;;;;;;7389062;19;20138;-75
2023/01/24 04:34:50;;;;;;;14.00;9.33;;;5.80;99.90;;;;;;7383957;19;20122;-75
2023/01/24 04:37:16;;;;;;;15.60;9.40;;;5.90;99.90;;;;;;7390264;19;20884;-75
2023/01/24 04:39:41;;;;;;;14.10;9.33;;;5.80;99.90;;;;;;7390797;19;20146;-75
2023/01/24 04:42:07;;;;;;;13.53;9.20;;;5.80;99.90;;;;;;7388482;19;20921;-76
2023/01/24 04:44:33;;;;;;;14.80;9.10;;;5.80;99.90;;;;;;7391282;19;20127;-75
2023/01/24 04:46:59;;;;;;;15.40;9.57;;;5.80;99.90;;;;;;7389110;19;20499;-76
2023/01/24 04:49:25;;;;;;;14.77;9.00;;;5.90;99.90;;;;;;7390707;19;20498;-75
2023/01/24 04:51:51;;;;;;;14.13;8.83;;;5.90;99.90;;;;;;7389407;19;20150;-76
2023/01/24 04:54:18;;;;;;;16.47;9.23;;;5.90;99.90;;;;;;7390708;19;20228;-75
2023/01/24 04:56:44;;;;;;;16.63;10.43;;;5.90;99.90;;;;;;7388165;19;20157;-74
2023/01/24 04:59:12;;;;;;;17.10;9.53;;;5.80;99.90;;;;;;7391649;19;20134;-75
2023/01/24 05:01:38;;;;;;;15.47;9.07;;;5.90;99.90;;;;;;7386867;19;20553;-75
2023/01/24 05:04:04;;;;;;;14.90;9.33;;;5.80;99.90;;;;;;7390762;19;20154;-75
2023/01/24 05:06:32;;;;;;;15.07;9.50;;;5.70;99.90;;;;;;7388360;19;20147;-75
2023/01/24 05:08:58;;;;;;;20.77;11.37;;;5.90;99.90;;;;;;7389707;19;20615;-74
2023/01/24 05:11:24;;;;;;;20.90;9.87;;;5.90;99.90;;;;;;7389696;19;20130;-75
2023/01/24 05:13:51;;;;;;;15.73;9.40;;;5.80;99.90;;;;;;7388145;19;20126;-74
2023/01/24 05:16:17;;;;;;;18.13;9.93;;;5.80;99.90;;;;;;7388318;19;20153;-75
2023/01/24 05:18:43;;;;;;;15.00;9.73;;;5.70;99.90;;;;;;7387538;19;20130;-75
2023/01/24 05:21:12;;;;;;;15.67;9.10;;;5.90;99.90;;;;;;7395504;19;20145;-75
2023/01/24 05:23:38;;;;;;;15.93;10.10;;;5.90;99.90;;;;;;7396267;19;20135;-75
2023/01/24 05:26:04;;;;;;;14.10;9.23;;;5.90;99.90;;;;;;7397575;19;20131;-76
2023/01/24 05:28:31;;;;;;;14.13;9.00;;;5.90;99.90;;;;;;7396950;19;20173;-75
2023/01/24 05:31:02;;;;;;;14.77;9.67;;;6.00;99.90;;;;;;7394847;19;20150;-74
2023/01/24 05:33:28;;;;;;;14.33;9.23;;;6.00;99.90;;;;;;7394298;19;20134;-75
2023/01/24 05:36:02;;;;;;;16.37;9.80;;;6.00;99.90;;;;;;7393760;19;20584;-75
2023/01/24 05:38:28;;;;;;;14.87;9.27;;;6.00;99.90;;;;;;7395763;19;20164;-76
2023/01/24 05:40:53;;;;;;;18.03;10.00;;;5.90;99.90;;;;;;7395206;19;20571;-76
2023/01/24 05:43:19;;;;;;;15.50;9.73;;;5.90;99.90;;;;;;7394440;19;20141;-75
2023/01/24 05:45:45;;;;;;;16.53;9.93;;;5.90;99.90;;;;;;7396187;19;20152;-74
2023/01/24 05:48:11;;;;;;;16.87;9.97;;;5.90;99.90;;;;;;7398087;19;20135;-76
2023/01/24 05:50:36;;;;;;;18.07;10.20;;;5.90;99.90;;;;;;7397481;19;20495;-75
2023/01/24 05:53:03;;;;;;;17.77;9.90;;;5.80;99.90;;;;;;7395251;19;20134;-76
2023/01/24 05:55:29;;;;;;;16.07;10.20;;;5.70;99.90;;;;;;7394464;19;20575;-75
2023/01/24 05:57:54;;;;;;;16.43;9.90;;;5.90;99.90;;;;;;7395608;19;20126;-75
2023/01/24 06:00:20;;;;;;;17.93;10.23;;;5.90;99.90;;;;;;7394011;19;20147;-75
2023/01/24 06:02:46;;;;;;;14.83;9.87;;;5.80;99.90;;;;;;7392931;19;20151;-76
2023/01/24 06:05:12;;;;;;;14.17;9.40;;;5.80;99.90;;;;;;7394160;19;20548;-76
2023/01/24 06:07:38;;;;;;;18.57;10.93;;;5.80;99.90;;;;;;7394953;19;20151;-74
2023/01/24 06:10:05;;;;;;;16.00;10.43;;;5.80;99.90;;;;;;7395371;19;20154;-75
2023/01/24 06:12:31;;;;;;;18.87;10.07;;;5.80;99.90;;;;;;7397215;19;20135;-76
2023/01/24 06:14:57;;;;;;;18.00;11.23;;;5.80;99.90;;;;;;7395361;19;20631;-74
2023/01/24 06:17:24;;;;;;;18.20;11.30;;;5.90;99.90;;;;;;7395899;19;20162;-75
2023/01/24 06:19:50;;;;;;;15.80;9.83;;;5.90;99.90;;;;;;7396980;19;20139;-75
2023/01/24 06:22:25;;;;;;;18.33;10.47;;;5.90;99.90;;;;;;7394143;19;20607;-75
2023/01/24 06:24:51;;;;;;;17.77;10.63;;;6.00;99.90;;;;;;7396585;19;20138;-76
2023/01/24 06:27:17;;;;;;;16.97;9.87;;;6.00;99.90;;;;;;7388721;19;20131;-75
2023/01/24 06:29:43;;;;;;;19.70;11.67;;;6.00;99.90;;;;;;7397518;19;20126;-76
2023/01/24 06:32:28;;;;;;;16.60;10.33;;;6.00;99.90;;;;;;7382397;19;20240;-75
2023/01/24 06:35:17;;;;;;;19.27;11.50;;;5.90;99.90;;;;;;7391459;19;20596;-74
2023/01/24 06:37:51;;;;;;;17.20;10.17;;;5.90;99.90;;;;;;7389181;19;20142;-76
2023/01/24 06:40:25;;;;;;;15.73;10.33;;;5.80;99.90;;;;;;7390533;19;20492;-75
2023/01/24 06:42:52;;;;;;;18.10;10.50;;;5.80;99.90;;;;;;7390094;19;20146;-75
2023/01/24 06:45:19;;;;;;;19.90;10.87;;;5.90;99.90;;;;;;7390944;19;20159;-76
2023/01/24 06:47:45;;;;;;;18.00;11.07;;;6.00;99.90;;;;;;7392981;19;20158;-74
2023/01/24 06:50:19;;;;;;;16.27;10.60;;;5.90;99.90;;;;;;7391542;19;20207;-76
2023/01/24 06:52:46;;;;;;;17.20;11.10;;;5.90;99.90;;;;;;7393186;19;20138;-76
2023/01/24 06:55:12;;;;;;;19.37;11.33;;;5.90;99.90;;;;;;7390381;19;20154;-75
2023/01/24 06:57:38;;;;;;;19.97;11.37;;;5.80;99.90;;;;;;7391011;19;20134;-76
2023/01/24 07:00:05;;;;;;;18.23;11.33;;;5.70;99.90;;;;;;7390248;19;20320;-75
2023/01/24 07:02:31;;;;;;;20.70;11.80;;;5.70;99.90;;;;;;7392934;19;20142;-76
2023/01/24 07:04:57;;;;;;;18.23;10.80;;;5.70;99.90;;;;;;7391720;19;20947;-76
2023/01/24 07:07:22;;;;;;;17.80;10.73;;;5.70;99.90;;;;;;7390828;19;20224;-74
2023/01/24 07:09:48;;;;;;;19.10;11.03;;;5.70;99.90;;;;;;7390350;19;20570;-75
2023/01/24 07:12:15;;;;;;;18.57;10.63;;;5.70;99.90;;;;;;7392364;19;20139;-78
2023/01/24 07:14:42;;;;;;;17.10;11.00;;;5.60;99.90;;;;;;7391589;19;20147;-76
2023/01/24 07:17:08;;;;;;;18.13;10.23;;;5.70;99.90;;;;;;7386294;19;20143;-76
2023/01/24 07:19:34;;;;;;;18.23;10.83;;;5.70;99.90;;;;;;7388852;19;20134;-76
2023/01/24 07:22:00;;;;;;;18.90;11.00;;;5.70;99.90;;;;;;7389763;19;20139;-74
2023/01/24 07:24:29;;;;;;;22.57;11.53;;;5.70;99.90;;;;;;7390239;19;20138;-76
2023/01/24 07:26:56;;;;;;;17.63;10.60;;;5.60;99.90;;;;;;7386186;19;20158;-77
2023/01/24 07:29:22;;;;;;;15.43;9.87;;;5.60;99.90;;;;;;7388669;19;20150;-74
2023/01/24 07:31:48;;;;;;;18.07;10.53;;;5.70;99.90;;;;;;7388924;19;20552;-76
2023/01/24 07:34:15;;;;;;;15.30;10.23;;;5.70;99.90;;;;;;7391528;19;20269;-76
2023/01/24 07:36:42;;;;;;;15.70;9.93;;;5.70;99.90;;;;;;7391254;19;20526;-76
2023/01/24 07:39:08;;;;;;;20.43;11.23;;;5.70;99.90;;;;;;7392474;19;20622;-76
2023/01/24 07:41:35;;;;;;;15.40;9.23;;;5.60;99.90;;;;;;7391481;19;20135;-75
2023/01/24 07:44:04;;;;;;;18.53;10.63;;;5.60;99.90;;;;;;7388765;19;20198;-77
2023/01/24 07:46:34;;;;;;;17.33;9.53;;;5.60;99.90;;;;;;7392132;19;20143;-77
2023/01/24 07:49:01;;;;;;;16.33;10.27;;;5.60;99.90;;;;;;7392059;19;20142;-76
2023/01/24 07:51:28;;;;;;;15.43;9.77;;;5.70;99.90;;;;;;7392914;19;20147;-77
2023/01/24 07:53:53;;;;;;;13.60;8.83;;;5.70;99.90;;;;;;7388992;19;20159;-76
2023/01/24 07:56:20;;;;;;;14.53;9.73;;;5.70;99.90;;;;;;7391786;19;20146;-75
2023/01/24 07:58:46;;;;;;;18.87;10.37;;;5.70;99.90;;;;;;7393007;19;20592;-77
2023/01/24 08:01:17;;;;;;;20.00;11.17;;;5.70;99.90;;;;;;7385397;19;20167;-75
2023/01/24 08:03:43;;;;;;;19.50;10.47;;;5.60;99.90;;;;;;7385975;19;20131;-77
2023/01/24 08:06:08;;;;;;;17.83;10.63;;;5.70;99.90;;;;;;7391264;19;20135;-76
2023/01/24 08:08:34;;;;;;;16.83;10.27;;;5.80;99.90;;;;;;7390052;19;20163;-74
2023/01/24 08:11:00;;;;;;;16.63;10.40;;;5.90;99.90;;;;;;7390335;19;20545;-76
2023/01/24 08:13:25;;;;;;;19.50;10.97;;;5.80;99.90;;;;;;7388694;19;20150;-76
2023/01/24 08:15:51;;;;;;;18.47;10.03;;;5.80;99.90;;;;;;7389272;19;20126;-76
2023/01/24 08:18:20;;;;;;;18.37;10.23;;;5.80;99.90;;;;;;7390188;19;20611;-76
2023/01/24 08:20:46;;;;;;;15.77;9.63;;;5.90;99.90;;;;;;7390731;19;20142;-76
2023/01/24 08:23:12;;;;;;;16.63;9.47;;;5.90;99.90;;;;;;7387970;19;20200;-76
2023/01/24 08:25:38;;;;;;;16.67;10.07;;;5.90;99.90;;;;;;7387730;19;20138;-76
2023/01/24 08:28:04;;;;;;;15.90;9.90;;;5.90;99.90;;;;;;7389374;19;20575;-77
2023/01/24 08:30:30;;;;;;;15.03;9.57;;;5.90;99.90;;;;;;7387180;19;20583;-75
2023/01/24 08:33:03;;;;;;;17.60;10.30;;;5.90;99.90;;;;;;7387047;19;20130;-78
2023/01/24 08:35:32;;;;;;;18.93;10.53;;;6.00;99.90;;;;;;7386473;19;20159;-75
2023/01/24 08:37:59;;;;;;;14.97;8.63;;;6.00;99.90;;;;;;7390028;19;20150;-77
2023/01/24 08:40:26;;;;;;;14.57;8.93;;;5.80;99.90;;;;;;7388200;19;20494;-77
2023/01/24 08:42:53;;;;;;;16.53;10.07;;;6.00;99.90;;;;;;7389064;19;20138;-79
2023/01/24 08:45:18;;;;;;;16.13;9.23;;;6.00;99.90;;;;;;7390604;19;20154;-76
2023/01/24 08:47:51;;;;;;;18.03;10.50;;;5.90;99.90;;;;;;7389805;19;20580;-77
2023/01/24 08:50:19;;;;;;;14.83;9.53;;;6.00;99.90;;;;;;7387204;19;20134;-75
2023/01/24 08:52:45;;;;;;;15.70;9.63;;;6.00;99.90;;;;;;7397812;19;20129;-76
2023/01/24 08:55:11;;;;;;;16.53;9.67;;;6.00;99.90;;;;;;7385156;19;20153;-77
2023/01/24 08:57:37;;;;;;;18.03;10.17;;;6.10;99.90;;;;;;7388814;19;20144;-76
2023/01/24 09:00:04;;;;;;;14.23;9.33;;;6.10;99.90;;;;;;7386998;19;20142;-76
2023/01/24 09:02:32;;;;;;;18.20;10.40;;;6.10;99.90;;;;;;7389082;19;20174;-77
2023/01/24 09:04:58;;;;;;;17.47;9.67;;;6.10;99.90;;;;;;7388298;19;20142;-77
2023/01/24 09:07:24;;;;;;;16.30;9.47;;;6.00;99.90;;;;;;7388453;19;20202;-76
2023/01/24 09:09:50;;;;;;;19.07;10.80;;;5.90;99.90;;;;;;7386726;19;20171;-76
2023/01/24 09:12:16;;;;;;;18.43;10.30;;;6.00;99.90;;;;;;7396360;19;20208;-76
2023/01/24 09:14:41;;;;;;;16.60;8.83;;;6.00;99.90;;;;;;7386351;19;20134;-77
2023/01/24 09:17:07;;;;;;;16.20;9.73;;;6.00;99.90;;;;;;7386745;19;20578;-75
2023/01/24 09:19:33;;;;;;;17.00;9.77;;;6.00;99.90;;;;;;7389479;19;20161;-76
2023/01/24 09:22:00;;;;;;;16.97;10.03;;;6.00;99.90;;;;;;7388417;19;20193;-74
2023/01/24 09:24:26;;;;;;;16.90;10.67;;;6.00;99.90;;;;;;7388859;19;20583;-76
2023/01/24 09:26:51;;;;;;;15.47;9.40;;;6.00;99.90;;;;;;7388507;19;20202;-76
2023/01/24 09:29:17;;;;;;;16.70;9.83;;;5.90;99.90;;;;;;7386571;19;20139;-76
2023/01/24 09:31:43;;;;;;;14.00;9.07;;;5.90;99.90;;;;;;7388338;19;20148;-76
2023/01/24 09:34:09;;;;;;;14.43;8.93;;;6.00;99.90;;;;;;7387494;19;20177;-76
2023/01/24 09:36:34;;;;;;;16.03;9.60;;;6.00;99.90;;;;;;7385999;19;20206;-76
2023/01/24 09:39:00;;;;;;;15.77;9.50;;;6.00;99.90;;;;;;7380665;19;20621;-77
2023/01/24 09:42:15;;;;;;;16.93;9.13;;;6.00;99.90;;;;;;7388102;19;20153;-76
2023/01/24 09:44:47;;;;;;;13.77;8.20;;;6.10;99.90;;;;;;7390960;19;20135;-76
2023/01/24 09:47:37;;;;;;;17.07;8.47;;;6.10;99.90;;;;;;7387682;19;20150;-76
2023/01/24 09:50:14;;;;;;;15.50;9.37;;;6.20;99.90;;;;;;7390782;19;20193;-76
2023/01/24 09:52:43;;;;;;;16.00;9.37;;;6.20;99.90;;;;;;7387929;19;20630;-75
2023/01/24 09:55:15;;;;;;;15.93;9.20;;;6.20;99.90;;;;;;7389695;19;20157;-76
2023/01/24 09:58:00;;;;;;;16.63;9.07;;;6.20;99.90;;;;;;7393876;19;20155;-75
2023/01/24 10:00:32;;;;;;;13.43;7.97;;;6.20;99.90;;;;;;7386163;19;20495;-76
2023/01/24 10:02:59;;;;;;;16.03;9.60;;;6.20;99.90;;;;;;7384982;19;20130;-75
2023/01/24 10:05:38;;;;;;;15.93;9.40;;;6.20;99.90;;;;;;7387054;19;20155;-76
2023/01/24 10:08:14;;;;;;;14.87;8.87;;;6.30;99.90;;;;;;7392536;19;20639;-77
2023/01/24 10:10:49;;;;;;;15.47;9.23;;;6.30;99.90;;;;;;7395352;19;20648;-77
2023/01/24 10:13:30;;;;;;;16.63;8.30;;;6.20;99.90;;;;;;7393419;19;20642;-75
2023/01/24 10:16:43;;;;;;;15.47;8.90;;;6.20;99.90;;;;;;7392662;19;20155;-77
2023/01/24 10:19:26;;;;;;;12.23;7.43;;;6.20;99.90;;;;;;7392262;19;20561;-77
2023/01/24 10:21:57;;;;;;;13.30;7.37;;;6.30;99.90;;;;;;7393726;19;20147;-76
2023/01/24 10:24:30;;;;;;;12.73;7.63;;;6.20;99.90;;;;;;7392647;19;20173;-77
2023/01/24 10:26:55;;;;;;;12.63;7.60;;;6.30;99.90;;;;;;7395929;19;20207;-77
2023/01/24 10:29:26;;;;;;;13.47;7.63;;;6.30;99.90;;;;;;7394921;19;20151;-76
2023/01/24 10:32:09;;;;;;;13.20;7.97;;;6.30;99.90;;;;;;7391952;19;20496;-77
2023/01/24 10:34:40;;;;;;;14.93;8.87;;;6.20;99.90;;;;;;7392775;19;20156;-76
2023/01/24 10:37:09;;;;;;;15.00;8.07;;;6.30;99.90;;;;;;7389332;19;20138;-76
2023/01/24 10:39:36;;;;;;;12.20;7.80;;;6.20;99.90;;;;;;7401725;19;20162;-76
2023/01/24 10:42:03;;;;;;;11.50;7.87;;;6.20;99.90;;;;;;7395488;19;20581;-76
2023/01/24 10:44:36;;;;;;;12.43;7.37;;;6.20;99.90;;;;;;7392675;19;20609;-76
2023/01/24 10:47:38;;;;;;;11.13;6.97;;;6.40;99.90;;;;;;7393150;19;20179;-77
2023/01/24 10:50:10;;;;;;;9.93;6.40;;;6.40;99.90;;;;;;7394168;19;20134;-77
2023/01/24 10:52:35;;;;;;;10.63;6.77;;;6.40;99.90;;;;;;7392395;19;20157;-76
2023/01/24 10:55:05;;;;;;;9.37;6.43;;;6.40;99.90;;;;;;7391894;19;20154;-77
2023/01/24 10:57:48;;;;;;;11.47;6.67;;;6.40;99.90;;;;;;7392603;19;20162;-78
2023/01/24 11:00:40;;;;;;;11.13;6.30;;;6.30;99.90;;;;;;7391490;19;20174;-76
2023/01/24 11:03:29;;;;;;;18.77;11.03;;;6.20;99.90;;;;;;7394616;19;20140;-77
2023/01/24 11:05:57;;;;;;;20.50;12.70;;;6.10;99.90;;;;;;7393864;19;20141;-77
2023/01/24 11:08:35;;;;;;;10.60;7.10;;;6.40;99.90;;;;;;7393661;19;20130;-76
2023/01/24 11:11:01;;;;;;;10.60;6.43;;;6.50;99.90;;;;;;7389805;19;20158;-76
2023/01/24 11:13:40;;;;;;;12.33;5.93;;;6.50;99.90;;;;;;7397212;19;20257;-80
2023/01/24 11:16:20;;;;;;;11.73;7.30;;;6.40;99.90;;;;;;7397443;19;20131;-76
2023/01/24 11:18:58;;;;;;;12.73;6.80;;;6.40;99.90;;;;;;7391669;19;20433;-76
2023/01/24 11:21:26;;;;;;;9.10;6.17;;;6.40;99.90;;;;;;7391353;19;20499;-77
2023/01/24 11:24:04;;;;;;;9.60;6.30;;;6.50;99.90;;;;;;7390658;19;20158;-76
2023/01/24 11:26:33;;;;;;;10.53;6.47;;;6.60;99.90;;;;;;7395206;19;20153;-78
2023/01/24 11:29:05;;;;;;;10.13;6.17;;;6.50;99.90;;;;;;7392788;19;20145;-78
2023/01/24 11:32:10;;;;;;;11.97;6.80;;;6.50;99.90;;;;;;7399947;19;20157;-76
2023/01/24 11:34:54;;;;;;;10.03;6.60;;;6.50;99.90;;;;;;7393955;19;20146;-75
2023/01/24 11:37:44;;;;;;;12.07;6.13;;;6.60;99.90;;;;;;7389481;19;20444;-79
2023/01/24 11:40:28;;;;;;;9.30;5.97;;;6.60;99.90;;;;;;7393161;19;20130;-77
2023/01/24 11:43:12;;;;;;;10.87;7.17;;;6.60;99.90;;;;;;7390020;19;20627;-76
2023/01/24 11:46:03;;;;;;;13.47;7.50;;;6.60;99.90;;;;;;7390193;19;20155;-77
2023/01/24 11:48:54;;;;;;;11.00;6.00;;;6.60;99.90;;;;;;7389411;19;20176;-76
2023/01/24 11:52:17;;;;;;;11.43;7.47;;;6.50;99.90;;;;;;7391929;19;20134;-77
2023/01/24 11:55:12;;;;;;;11.30;6.73;;;6.60;99.90;;;;;;7386945;19;20594;-76
2023/01/24 11:58:16;;;;;;;9.97;6.97;;;6.50;99.90;;;;;;7390226;19;20133;-74
2023/01/24 12:01:08;;;;;;;11.37;6.60;;;6.40;99.90;;;;;;7387638;19;20162;-76
2023/01/24 12:03:44;;;;;;;11.90;6.87;;;6.40;99.90;;;;;;7389834;19;20154;-76
2023/01/24 12:06:32;;;;;;;12.53;7.73;;;6.40;99.90;;;;;;7390822;19;20242;-77
2023/01/24 12:09:11;;;;;;;12.07;7.83;;;6.40;99.90;;;;;;7391707;19;20480;-74
2023/01/24 12:11:58;;;;;;;15.23;7.43;;;6.50;99.90;;;;;;7388635;19;20150;-76
2023/01/24 12:14:48;;;;;;;12.67;7.10;;;6.40;99.90;;;;;;7391010;19;20130;-76
2023/01/24 12:17:25;;;;;;;11.77;7.57;;;6.50;99.90;;;;;;7390244;19;20135;-75
2023/01/24 12:20:12;;;;;;;11.20;6.30;;;6.50;99.90;;;;;;7398699;19;20138;-77
2023/01/24 12:22:39;;;;;;;10.90;6.93;;;6.50;99.90;;;;;;7391066;19;20145;-76
2023/01/24 12:25:11;;;;;;;11.50;7.10;;;6.40;99.90;;;;;;7388678;19;20628;-76
2023/01/24 12:27:37;;;;;;;13.33;6.83;;;6.50;99.90;;;;;;7390058;19;20536;-76
2023/01/24 12:30:24;;;;;;;8.87;6.30;;;6.40;99.90;;;;;;7385104;19;20193;-75
2023/01/24 12:32:57;;;;;;;12.27;6.63;;;6.50;99.90;;;;;;7388355;19;20134;-76
2023/01/24 12:35:35;;;;;;;10.27;7.10;;;6.50;99.90;;;;;;7389307;19;20647;-74
2023/01/24 12:38:17;;;;;;;11.43;6.87;;;6.60;99.90;;;;;;7389334;19;20127;-75
2023/01/24 12:41:06;;;;;;;11.17;7.23;;;6.50;99.90;;;;;;7391809;19;20127;-76
2023/01/24 12:43:54;;;;;;;10.03;6.23;;;6.40;99.90;;;;;;7390584;19;20145;-76
2023/01/24 12:46:47;;;;;;;16.87;8.40;;;6.50;99.90;;;;;;7389168;19;20134;-75
2023/01/24 12:49:27;;;;;;;12.30;7.53;;;6.50;99.90;;;;;;7387879;19;20471;-75
2023/01/24 12:51:59;;;;;;;9.70;7.07;;;6.60;99.90;;;;;;7388371;19;20126;-76
2023/01/24 12:54:40;;;;;;;10.53;7.30;;;6.60;99.90;;;;;;7387937;19;20227;-75
2023/01/24 12:57:40;;;;;;;12.17;6.37;;;6.50;99.90;;;;;;7390606;19;20611;-75
2023/01/24 13:00:23;;;;;;;8.77;5.77;;;6.50;99.90;;;;;;7386804;19;20178;-76
2023/01/24 13:03:33;;;;;;;11.23;7.43;;;6.40;99.90;;;;;;7386926;19;20474;-75
2023/01/24 13:06:28;;;;;;;12.07;6.50;;;6.40;99.90;;;;;;7388421;19;20159;-75
2023/01/24 13:09:21;;;;;;;9.83;6.57;;;6.40;99.90;;;;;;7389628;19;20142;-75
2023/01/24 13:11:50;;;;;;;8.80;5.97;;;6.50;99.90;;;;;;7385077;19;20142;-77
2023/01/24 13:14:40;;;;;;;11.30;6.97;;;6.50;99.90;;;;;;7389250;19;20158;-75
2023/01/24 13:17:24;;;;;;;10.30;6.50;;;6.40;99.90;;;;;;7384573;19;20143;-76
2023/01/24 13:20:04;;;;;;;10.70;6.47;;;6.50;99.90;;;;;;7386618;19;20147;-75
2023/01/24 13:22:47;;;;;;;10.50;6.17;;;6.50;99.90;;;;;;7386938;19;20138;-75
2023/01/24 13:25:45;;;;;;;13.63;6.03;;;6.50;99.90;;;;;;7388545;19;20198;-75
2023/01/24 13:28:25;;;;;;;8.40;5.67;;;6.50;99.90;;;;;;7386698;19;20142;-76
2023/01/24 13:31:30;;;;;;;9.37;5.43;;;6.50;99.90;;;;;;7385580;19;20154;-76
2023/01/24 13:34:02;;;;;;;9.13;5.77;;;6.50;99.90;;;;;;7384695;19;20170;-75
2023/01/24 13:36:36;;;;;;;9.67;5.70;;;6.40;99.90;;;;;;7387807;19;20583;-75
2023/01/24 13:39:04;;;;;;;7.23;5.43;;;6.40;99.90;;;;;;7388064;19;20157;-76
2023/01/24 13:41:29;;;;;;;8.03;5.40;;;6.40;99.90;;;;;;7386463;19;20130;-75